createdAt,value
2018-03-22T00:01:08.062Z,66.64
2018-03-22T00:03:34.840Z,66.57
2018-03-22T00:06:02.545Z,66.80
2018-03-22T00:08:29.294Z,66.83
2018-03-22T00:10:56.075Z,66.54
2018-03-22T00:13:22.874Z,66.66
2018-03-22T00:15:49.668Z,66.53
2018-03-22T00:18:17.185Z,66.60
2018-03-22T00:20:43.939Z,67.20
2018-03-22T00:23:10.689Z,67.11
2018-03-22T00:25:37.700Z,67.34
2018-03-22T00:28:04.439Z,66.98
2018-03-22T00:30:31.251Z,67.76
2018-03-22T00:32:58.686Z,67.69
2018-03-22T00:35:26.454Z,67.14
2018-03-22T00:37:53.250Z,67.73
2018-03-22T00:40:19.955Z,68.23
2018-03-22T00:42:46.776Z,67.09
2018-03-22T00:45:13.500Z,67.10
2018-03-22T00:47:40.872Z,67.08
2018-03-22T00:50:09.282Z,67.35
2018-03-22T00:52:36.048Z,67.50
2018-03-22T00:55:02.858Z,67.28
2018-03-22T00:57:29.566Z,67.57
2018-03-22T00:59:56.280Z,68.01
2018-03-22T01:02:23.017Z,67.76
2018-03-22T01:04:50.529Z,67.53
2018-03-22T01:07:17.315Z,67.46
2018-03-22T01:09:44.131Z,68.32
2018-03-22T01:12:11.607Z,67.50
2018-03-22T01:14:38.832Z,67.30
2018-03-22T01:17:05.647Z,67.65
2018-03-22T01:19:33.060Z,68.06
2018-03-22T01:21:59.813Z,67.41
2018-03-22T01:24:26.568Z,67.92
2018-03-22T01:26:54.007Z,67.54
2018-03-22T01:29:20.796Z,67.30
2018-03-22T01:31:47.564Z,67.11
2018-03-22T01:34:14.399Z,67.29
2018-03-22T01:36:41.186Z,67.15
2018-03-22T01:39:08.821Z,67.03
2018-03-22T01:41:35.528Z,66.78
2018-03-22T01:44:02.320Z,67.05
2018-03-22T01:46:29.117Z,67.48
2018-03-22T01:48:55.845Z,67.13
2018-03-22T01:51:22.608Z,68.20
2018-03-22T01:53:49.374Z,67.36
2018-03-22T01:56:16.173Z,66.87
2018-03-22T01:58:42.862Z,67.52
2018-03-22T02:01:09.598Z,67.09
2018-03-22T02:03:37.045Z,67.90
2018-03-22T02:06:03.816Z,67.40
2018-03-22T02:08:30.542Z,67.14
2018-03-22T02:10:57.322Z,66.96
2018-03-22T02:13:24.076Z,66.98
2018-03-22T02:15:50.875Z,66.65
2018-03-22T02:18:17.628Z,66.85
2018-03-22T02:20:44.398Z,66.92
2018-03-22T02:23:11.140Z,66.82
2018-03-22T02:25:37.867Z,66.90
2018-03-22T02:28:04.598Z,67.41
2018-03-22T02:30:31.381Z,67.81
2018-03-22T02:32:58.187Z,67.52
2018-03-22T02:35:24.999Z,67.69
2018-03-22T02:40:48.704Z,67.90
2018-03-22T02:43:15.514Z,68.29
2018-03-22T02:45:42.272Z,68.18
2018-03-22T02:48:09.387Z,68.45
2018-03-22T02:50:36.135Z,68.81
2018-03-22T02:53:03.610Z,68.85
2018-03-22T02:55:30.345Z,69.37
2018-03-22T02:57:57.121Z,68.51
2018-03-22T03:00:25.221Z,69.04
2018-03-22T03:02:52.988Z,68.46
2018-03-22T03:05:19.740Z,69.04
2018-03-22T03:07:46.599Z,68.75
2018-03-22T03:10:14.094Z,68.85
2018-03-22T03:12:40.859Z,69.04
2018-03-22T03:15:07.606Z,69.90
2018-03-22T03:17:34.342Z,69.07
2018-03-22T03:20:02.923Z,68.76
2018-03-22T03:22:29.711Z,69.46
2018-03-22T03:24:56.465Z,70.42
2018-03-22T03:27:23.262Z,69.29
2018-03-22T03:29:49.972Z,69.02
2018-03-22T03:32:16.731Z,69.31
2018-03-22T03:34:43.503Z,69.57
2018-03-22T03:37:10.272Z,70.57
2018-03-22T03:39:37.068Z,69.33
2018-03-22T03:42:03.860Z,69.24
2018-03-22T03:44:30.534Z,69.48
2018-03-22T03:46:57.234Z,69.87
2018-03-22T03:49:23.939Z,69.64
2018-03-22T03:51:50.672Z,70.69
2018-03-22T03:54:17.427Z,71.16
2018-03-22T03:56:44.150Z,70.69
2018-03-22T03:59:10.930Z,71.81
2018-03-22T04:01:37.694Z,70.20
2018-03-22T04:04:04.505Z,71.23
2018-03-22T04:06:32.029Z,71.44
2018-03-22T04:08:58.841Z,71.51
2018-03-22T04:11:25.571Z,70.67
2018-03-22T04:13:52.335Z,70.80
2018-03-22T04:16:19.088Z,69.96
2018-03-22T04:18:46.433Z,71.41
2018-03-22T04:21:13.164Z,71.25
2018-03-22T04:23:40.851Z,70.40
2018-03-22T04:26:07.588Z,71.02
2018-03-22T04:28:34.312Z,70.68
2018-03-22T04:31:02.057Z,71.94
2018-03-22T04:33:28.882Z,71.84
2018-03-22T04:35:55.661Z,73.07
2018-03-22T04:38:23.140Z,73.33
2018-03-22T04:40:49.942Z,71.67
2018-03-22T04:43:16.747Z,71.93
2018-03-22T04:45:43.489Z,71.39
2018-03-22T04:48:11.003Z,71.83
2018-03-22T04:50:37.765Z,71.63
2018-03-22T04:53:04.560Z,73.03
2018-03-22T04:55:32.281Z,73.04
2018-03-22T04:57:59.010Z,71.95
2018-03-22T05:00:25.821Z,72.03
2018-03-22T05:02:52.650Z,72.22
2018-03-22T05:05:19.412Z,72.47
2018-03-22T05:07:46.807Z,71.58
2018-03-22T05:10:13.530Z,75.84
2018-03-22T05:12:41.035Z,74.88
2018-03-22T05:15:08.594Z,73.05
2018-03-22T05:17:35.380Z,76.73
2018-03-22T05:20:02.162Z,75.84
2018-03-22T05:22:28.959Z,77.86
2018-03-22T05:24:55.718Z,76.27
2018-03-22T05:27:22.464Z,76.07
2018-03-22T05:29:49.213Z,77.39
2018-03-22T05:32:16.754Z,75.16
2018-03-22T05:34:43.437Z,77.57
2018-03-22T05:37:11.480Z,76.27
2018-03-22T05:39:38.282Z,75.73
2018-03-22T05:42:05.073Z,75.16
2018-03-22T05:44:32.497Z,77.94
2018-03-22T05:46:59.221Z,77.01
2018-03-22T05:49:26.651Z,77.82
2018-03-22T05:51:53.511Z,80.12
2018-03-22T05:54:21.164Z,77.67
2018-03-22T05:56:48.727Z,78.66
2018-03-22T05:59:15.623Z,77.70
2018-03-22T06:01:42.437Z,77.72
2018-03-22T06:04:09.264Z,78.73
2018-03-22T06:06:36.018Z,79.57
2018-03-22T06:09:03.606Z,80.61
2018-03-22T06:11:30.361Z,78.97
2018-03-22T06:13:57.197Z,79.12
2018-03-22T06:16:23.956Z,78.50
2018-03-22T06:18:52.462Z,82.01
2018-03-22T06:21:19.780Z,80.74
2018-03-22T06:23:47.354Z,82.10
2018-03-22T06:26:14.236Z,82.20
2018-03-22T06:28:42.029Z,78.41
2018-03-22T06:31:09.127Z,80.97
2018-03-22T06:33:35.936Z,81.21
2018-03-22T06:36:02.685Z,81.24
2018-03-22T06:38:29.606Z,81.55
2018-03-22T06:40:56.225Z,79.42
2018-03-22T06:43:23.130Z,80.75
2018-03-22T06:45:50.617Z,81.72
2018-03-22T06:48:17.427Z,81.82
2018-03-22T06:50:44.132Z,81.23
2018-03-22T06:53:11.605Z,81.91
2018-03-22T06:55:38.983Z,82.29
2018-03-22T06:58:05.709Z,81.23
2018-03-22T07:00:32.411Z,79.55
2018-03-22T07:02:59.173Z,82.91
2018-03-22T07:05:25.812Z,82.94
2018-03-22T07:07:53.815Z,83.76
2018-03-22T07:10:20.539Z,82.11
2018-03-22T07:12:47.267Z,81.43
2018-03-22T07:15:14.165Z,81.36
2018-03-22T07:17:40.944Z,83.02
2018-03-22T07:20:07.716Z,82.80
2018-03-22T07:22:34.532Z,84.12
2018-03-22T07:25:01.241Z,84.01
2018-03-22T07:27:28.080Z,82.24
2018-03-22T07:29:54.740Z,81.67
2018-03-22T07:32:22.136Z,81.61
2018-03-22T07:34:48.898Z,81.33
2018-03-22T07:37:15.708Z,82.18
2018-03-22T07:39:42.449Z,82.92
2018-03-22T07:42:09.259Z,83.25
2018-03-22T07:44:40.132Z,83.81
2018-03-22T07:47:06.954Z,83.77
2018-03-22T07:49:33.709Z,83.14
2018-03-22T07:52:00.499Z,80.78
2018-03-22T07:54:27.294Z,81.38
2018-03-22T07:56:54.086Z,81.81
2018-03-22T07:59:20.827Z,81.25
2018-03-22T08:01:47.588Z,82.18
2018-03-22T08:04:14.330Z,81.93
2018-03-22T08:06:41.043Z,84.87
2018-03-22T08:09:08.780Z,83.00
2018-03-22T08:11:35.487Z,81.79
2018-03-22T08:14:03.565Z,83.66
2018-03-22T08:16:30.322Z,84.05
2018-03-22T08:18:57.598Z,83.19
2018-03-22T08:21:24.361Z,83.00
2018-03-22T08:23:51.132Z,81.57
2018-03-22T08:26:18.127Z,83.44
2018-03-22T08:28:45.598Z,82.85
2018-03-22T08:31:12.321Z,84.05
2018-03-22T08:33:39.051Z,84.51
2018-03-22T08:36:06.480Z,84.77
2018-03-22T08:38:33.254Z,82.52
2018-03-22T08:40:59.984Z,83.16
2018-03-22T08:43:26.734Z,82.18
2018-03-22T08:45:53.460Z,82.92
2018-03-22T08:48:20.284Z,82.62
2018-03-22T08:50:47.004Z,84.95
2018-03-22T08:53:14.441Z,82.77
2018-03-22T08:55:41.205Z,85.05
2018-03-22T08:58:07.934Z,84.46
2018-03-22T09:00:35.415Z,84.72
2018-03-22T09:03:03.165Z,86.02
2018-03-22T09:05:29.951Z,85.54
2018-03-22T09:07:56.724Z,83.74
2018-03-22T09:10:23.490Z,84.89
2018-03-22T09:12:50.251Z,86.00
2018-03-22T09:15:17.053Z,85.88
2018-03-22T09:17:43.806Z,86.38
2018-03-22T09:20:10.457Z,83.86
2018-03-22T09:22:38.049Z,85.74
2018-03-22T09:25:04.763Z,85.94
2018-03-22T09:27:31.493Z,88.17
2018-03-22T09:29:58.237Z,88.74
2018-03-22T09:32:25.786Z,87.51
2018-03-22T09:34:52.548Z,87.11
2018-03-22T09:37:19.325Z,85.40
2018-03-22T09:39:46.747Z,86.49
2018-03-22T09:42:13.462Z,87.78
2018-03-22T09:44:40.208Z,86.98
2018-03-22T09:47:06.882Z,84.20
2018-03-22T09:49:35.109Z,87.98
2018-03-22T09:52:01.934Z,86.26
2018-03-22T09:54:28.716Z,85.24
2018-03-22T09:56:56.435Z,86.42
2018-03-22T09:59:23.921Z,88.59
2018-03-22T10:01:51.373Z,87.01
2018-03-22T10:04:18.706Z,86.73
2018-03-22T10:06:45.510Z,88.30
2018-03-22T10:09:12.165Z,88.80
2018-03-22T10:11:38.836Z,86.12
2018-03-22T10:14:05.531Z,85.41
2018-03-22T10:16:50.345Z,86.40
2018-03-22T10:19:17.336Z,86.59
2018-03-22T10:21:44.367Z,87.54
2018-03-22T10:24:11.064Z,85.73
2018-03-22T10:26:37.748Z,88.31
2018-03-22T10:29:04.436Z,88.64
2018-03-22T10:31:31.216Z,87.61
2018-03-22T10:33:57.903Z,87.47
2018-03-22T10:36:24.667Z,86.28
2018-03-22T10:38:51.423Z,88.89
2018-03-22T10:41:19.569Z,88.05
2018-03-22T10:43:46.430Z,87.91
2018-03-22T10:46:13.269Z,87.19
2018-03-22T10:48:40.728Z,87.29
2018-03-22T10:51:07.406Z,89.61
2018-03-22T10:53:34.789Z,88.10
2018-03-22T10:56:01.531Z,89.22
2018-03-22T10:58:28.217Z,88.54
2018-03-22T11:01:00.964Z,88.30
2018-03-22T11:03:27.670Z,88.22
2018-03-22T11:05:54.354Z,87.19
2018-03-22T11:08:21.060Z,88.23
2018-03-22T11:10:48.508Z,88.26
2018-03-22T11:13:15.986Z,87.76
2018-03-22T11:15:43.367Z,89.30
2018-03-22T11:18:10.091Z,88.10
2018-03-22T11:20:36.754Z,87.92
2018-03-22T11:23:03.520Z,87.57
2018-03-22T11:25:30.313Z,88.66
2018-03-22T11:27:57.731Z,87.30
2018-03-22T11:30:24.428Z,87.95
2018-03-22T11:32:51.092Z,88.95
2018-03-22T11:35:17.792Z,90.16
2018-03-22T11:37:45.205Z,91.12
2018-03-22T11:40:11.950Z,89.43
2018-03-22T11:42:38.704Z,89.70
2018-03-22T11:45:06.104Z,90.16
2018-03-22T11:47:32.908Z,88.39
2018-03-22T11:49:59.759Z,89.50
2018-03-22T11:52:26.768Z,90.06
2018-03-22T11:54:53.493Z,90.26
2018-03-22T11:57:20.811Z,88.81
2018-03-22T11:59:47.589Z,90.30
2018-03-22T12:02:14.296Z,89.74
2018-03-22T12:04:41.084Z,89.32
2018-03-22T12:07:08.530Z,89.75
2018-03-22T12:09:35.268Z,88.09
2018-03-22T12:12:02.032Z,89.22
2018-03-22T12:14:28.835Z,89.41
2018-03-22T12:16:55.460Z,89.57
2018-03-22T12:19:22.266Z,88.47
2018-03-22T12:21:49.599Z,88.70
2018-03-22T12:24:16.511Z,89.87
2018-03-22T12:26:43.862Z,90.77
2018-03-22T12:29:11.332Z,89.38
2018-03-22T12:31:38.076Z,89.58
2018-03-22T12:34:04.873Z,88.48
2018-03-22T12:36:31.586Z,89.28
2018-03-22T12:38:58.319Z,91.50
2018-03-22T12:41:25.107Z,90.38
2018-03-22T12:43:51.930Z,90.99
2018-03-22T12:46:19.543Z,90.20
2018-03-22T12:48:46.305Z,90.51
2018-03-22T12:51:14.821Z,90.76
2018-03-22T12:53:41.566Z,90.48
2018-03-22T12:56:08.322Z,89.65
2018-03-22T12:58:35.684Z,89.75
2018-03-22T13:01:03.252Z,90.87
2018-03-22T13:03:30.035Z,90.74
2018-03-22T13:05:56.973Z,88.95
2018-03-22T13:08:23.821Z,89.85
2018-03-22T13:10:50.536Z,89.41
2018-03-22T13:13:17.385Z,89.42
2018-03-22T13:15:44.788Z,88.60
2018-03-22T13:18:13.843Z,90.45
2018-03-22T13:20:43.911Z,90.43
2018-03-22T13:23:12.288Z,88.67
2018-03-22T13:25:42.199Z,88.47
2018-03-22T13:28:10.508Z,88.88
2018-03-22T13:30:38.752Z,90.61
2018-03-22T13:33:06.946Z,88.41
2018-03-22T13:35:35.340Z,88.96
2018-03-22T13:38:03.762Z,88.16
2018-03-22T13:40:32.246Z,90.21
2018-03-22T13:43:00.612Z,89.95
2018-03-22T13:45:28.928Z,88.96
2018-03-22T13:47:57.347Z,90.04
2018-03-22T13:50:25.335Z,90.21
2018-03-22T13:52:53.707Z,91.08
2018-03-22T13:55:21.994Z,91.45
2018-03-22T13:57:50.308Z,90.39
2018-03-22T14:00:18.643Z,90.92
2018-03-22T14:02:46.313Z,90.45
2018-03-22T14:05:15.166Z,90.67
2018-03-22T14:07:44.579Z,90.63
2018-03-22T14:10:14.421Z,91.17
2018-03-22T14:12:43.611Z,92.01
2018-03-22T14:15:12.189Z,91.11
2018-03-22T14:17:40.614Z,91.19
2018-03-22T14:20:09.214Z,90.09
2018-03-22T14:22:37.668Z,89.97
2018-03-22T14:25:06.935Z,89.31
2018-03-22T14:27:35.410Z,89.50
2018-03-22T14:30:03.934Z,91.07
2018-03-22T14:32:32.400Z,88.98
2018-03-22T14:35:01.725Z,89.26
2018-03-22T14:37:31.262Z,88.93
2018-03-22T14:40:00.449Z,90.73
2018-03-22T14:42:29.020Z,91.42
2018-03-22T14:44:57.448Z,91.10
2018-03-22T14:47:27.619Z,90.84
2018-03-22T14:49:56.023Z,91.21
2018-03-22T14:52:25.603Z,90.44
2018-03-22T14:54:53.956Z,92.13
2018-03-22T14:57:22.383Z,91.65
2018-03-22T14:59:50.698Z,91.65
2018-03-22T15:02:19.270Z,90.95
2018-03-22T15:04:47.652Z,90.61
2018-03-22T15:07:16.989Z,90.75
2018-03-22T15:09:46.465Z,91.82
2018-03-22T15:12:16.272Z,91.58
2018-03-22T15:14:45.242Z,91.31
2018-03-22T15:17:14.552Z,92.00
2018-03-22T15:19:43.556Z,92.11
2018-03-22T15:22:13.651Z,91.77
2018-03-22T15:24:42.154Z,90.85
2018-03-22T15:27:10.746Z,91.73
2018-03-22T15:29:39.143Z,91.22
2018-03-22T15:32:07.438Z,91.37
2018-03-22T15:34:35.935Z,91.78
2018-03-22T15:37:05.472Z,91.25
2018-03-22T15:39:34.825Z,92.42
2018-03-22T15:42:03.310Z,91.89
2018-03-22T15:44:31.675Z,92.14
2018-03-22T15:47:00.736Z,89.87
2018-03-22T15:49:29.154Z,92.40
2018-03-22T15:51:57.710Z,91.03
2018-03-22T15:54:27.159Z,92.24
2018-03-22T15:56:56.479Z,91.87
2018-03-22T15:59:25.967Z,92.47
2018-03-22T16:01:54.486Z,91.60
2018-03-22T16:04:24.046Z,91.16
2018-03-22T16:06:52.607Z,91.26
2018-03-22T16:09:21.034Z,92.04
2018-03-22T16:11:49.536Z,91.67
2018-03-22T16:14:18.772Z,90.66
2018-03-22T16:16:47.342Z,92.71
2018-03-22T16:19:16.866Z,92.17
2018-03-22T16:21:46.153Z,92.09
2018-03-22T16:24:17.530Z,92.53
2018-03-22T16:26:46.951Z,92.16
2018-03-22T16:29:17.089Z,92.83
2018-03-22T16:31:46.224Z,92.92
2018-03-22T16:34:16.284Z,93.33
2018-03-22T16:36:46.449Z,92.99
2018-03-22T16:39:15.939Z,93.23
2018-03-22T16:41:46.193Z,92.83
2018-03-22T16:44:16.356Z,93.09
2018-03-22T16:46:45.594Z,93.35
2018-03-22T16:49:14.422Z,92.89
2018-03-22T16:51:43.448Z,92.84
2018-03-22T16:54:12.072Z,92.18
2018-03-22T16:56:41.680Z,92.54
2018-03-22T16:59:10.497Z,93.19
2018-03-22T17:01:39.143Z,92.52
2018-03-22T17:04:08.817Z,92.93
2018-03-22T17:06:38.393Z,92.79
2018-03-22T17:09:08.979Z,93.18
2018-03-22T17:11:39.468Z,92.50
2018-03-22T17:14:08.019Z,92.59
2018-03-22T17:16:36.578Z,92.62
2018-03-22T17:19:05.153Z,93.21
2018-03-22T17:21:33.919Z,92.77
2018-03-22T17:24:03.148Z,93.39
2018-03-22T17:26:31.876Z,92.97
2018-03-22T17:29:01.694Z,92.73
2018-03-22T17:31:31.141Z,93.00
2018-03-22T17:33:59.715Z,92.47
2018-03-22T17:36:29.244Z,92.43
2018-03-22T17:38:57.728Z,92.06
2018-03-22T17:41:26.251Z,91.80
2018-03-22T17:43:54.746Z,91.87
2018-03-22T17:46:24.323Z,92.25
2018-03-22T17:48:53.480Z,91.65
2018-03-22T17:51:23.002Z,91.45
2018-03-22T17:53:52.879Z,92.10
2018-03-22T17:56:22.578Z,91.95
2018-03-22T17:58:54.632Z,92.13
2018-03-22T18:01:25.135Z,91.76
2018-03-22T18:03:55.241Z,92.34
2018-03-22T18:06:24.639Z,91.88
2018-03-22T18:08:54.001Z,92.55
2018-03-22T18:11:23.318Z,92.06
2018-03-22T18:13:52.666Z,91.78
2018-03-22T18:16:22.792Z,91.66
2018-03-22T18:18:52.301Z,91.92
2018-03-22T18:21:22.193Z,91.77
2018-03-22T18:23:52.795Z,91.65
2018-03-22T18:26:23.940Z,91.98
2018-03-22T18:28:54.236Z,91.71
2018-03-22T18:31:25.755Z,91.50
2018-03-22T18:34:07.507Z,90.96
2018-03-22T18:36:36.653Z,91.15
2018-03-22T18:39:06.611Z,91.55
2018-03-22T18:41:39.716Z,91.33
2018-03-22T18:44:09.579Z,90.97
2018-03-22T18:46:40.102Z,91.48
2018-03-22T18:49:10.799Z,91.31
2018-03-22T18:51:40.727Z,91.83
2018-03-22T18:54:11.454Z,91.18
2018-03-22T18:56:41.122Z,91.73
2018-03-22T18:59:14.895Z,91.78
2018-03-22T19:01:45.427Z,91.67
2018-03-22T19:04:17.698Z,91.05
2018-03-22T19:06:49.511Z,90.93
2018-03-22T19:09:20.235Z,91.61
2018-03-22T19:11:50.834Z,91.55
2018-03-22T19:14:22.690Z,92.07
2018-03-22T19:16:52.808Z,91.30
2018-03-22T19:19:23.038Z,91.22
2018-03-22T19:21:52.159Z,91.51
2018-03-22T19:24:22.440Z,90.79
2018-03-22T19:26:51.757Z,92.02
2018-03-22T19:29:22.588Z,92.44
2018-03-22T19:31:55.882Z,92.17
2018-03-22T19:34:25.474Z,91.78
2018-03-22T19:36:57.555Z,91.29
2018-03-22T19:39:28.776Z,91.19
2018-03-22T19:42:00.026Z,91.23
2018-03-22T19:44:50.504Z,91.02
2018-03-22T19:47:20.474Z,90.78
2018-03-22T19:49:50.004Z,91.76
2018-03-22T19:52:20.758Z,91.06
2018-03-22T19:54:56.532Z,91.12
2018-03-22T19:57:31.258Z,91.42
2018-03-22T20:00:01.280Z,91.94
2018-03-22T20:02:33.066Z,91.31
2018-03-22T20:05:06.160Z,91.30
2018-03-22T20:07:38.863Z,91.03
2018-03-22T20:12:48.668Z,91.87
2018-03-22T20:15:18.640Z,91.38
2018-03-22T20:17:48.286Z,91.28
2018-03-22T20:20:17.724Z,90.97
2018-03-22T20:22:47.261Z,90.84
2018-03-22T20:25:18.352Z,91.31
2018-03-22T20:27:47.859Z,90.87
2018-03-22T20:30:16.506Z,90.51
2018-03-22T20:32:45.097Z,90.29
2018-03-22T20:35:15.553Z,90.46
2018-03-22T20:37:45.896Z,90.57
2018-03-22T20:40:15.250Z,90.51
2018-03-22T20:42:44.775Z,90.93
2018-03-22T20:45:14.566Z,91.06
2018-03-22T20:47:43.090Z,91.84
2018-03-22T20:50:12.472Z,91.32
2018-03-22T20:52:42.834Z,91.75
2018-03-22T20:55:12.343Z,90.63
2018-03-22T20:57:41.879Z,92.13
2018-03-22T21:00:11.028Z,91.60
2018-03-22T21:02:40.062Z,92.28
2018-03-22T21:05:10.803Z,91.94
2018-03-22T21:10:13.730Z,92.44
2018-03-22T21:12:47.634Z,92.23
2018-03-22T21:15:19.240Z,91.75
2018-03-22T21:17:54.140Z,91.23
2018-03-22T21:20:23.748Z,92.16
2018-03-22T21:22:58.229Z,91.82
2018-03-22T21:25:28.025Z,91.24
2018-03-22T21:27:57.221Z,92.05
2018-03-22T21:30:26.864Z,92.13
2018-03-22T21:32:56.556Z,92.47
2018-03-22T21:35:26.155Z,92.68
2018-03-22T21:37:57.823Z,92.94
2018-03-22T21:40:32.813Z,93.26
2018-03-22T21:43:01.499Z,92.46
2018-03-22T21:45:30.289Z,92.57
2018-03-22T21:47:59.642Z,91.61
2018-03-22T21:50:46.498Z,92.26
2018-03-22T21:53:15.158Z,92.93
2018-03-22T21:55:44.489Z,92.57
2018-03-22T21:58:16.878Z,92.83
2018-03-22T22:00:45.487Z,92.49
2018-03-22T22:03:15.017Z,92.43
2018-03-22T22:05:43.567Z,92.17
2018-03-22T22:08:12.741Z,92.03
2018-03-22T22:10:42.203Z,91.75
2018-03-22T22:13:17.980Z,92.24
2018-03-22T22:15:48.309Z,92.27
2018-03-22T22:18:18.840Z,91.76
2018-03-22T22:20:47.175Z,91.64
2018-03-22T22:23:15.637Z,91.87
2018-03-22T22:25:43.967Z,92.16
2018-03-22T22:28:12.588Z,91.57
2018-03-22T22:30:41.057Z,92.28
2018-03-22T22:33:12.024Z,91.79
2018-03-22T22:35:43.675Z,92.10
2018-03-22T22:38:13.128Z,92.31
2018-03-22T22:40:51.388Z,91.96
2018-03-22T22:43:21.910Z,92.52
2018-03-22T22:45:50.125Z,92.05
2018-03-22T22:48:17.804Z,91.68
2018-03-22T22:50:47.402Z,92.27
2018-03-22T22:53:15.821Z,92.48
2018-03-22T22:55:44.424Z,92.41
2018-03-22T22:58:12.404Z,92.32
2018-03-22T23:00:40.158Z,92.51
2018-03-22T23:03:08.993Z,92.63
2018-03-22T23:05:36.435Z,92.35
2018-03-22T23:08:05.521Z,92.26
2018-03-22T23:10:36.446Z,91.96
2018-03-22T23:13:03.989Z,92.01
2018-03-22T23:15:32.527Z,92.51
2018-03-22T23:18:01.003Z,91.60
2018-03-22T23:20:33.001Z,91.76
2018-03-22T23:22:59.643Z,92.03
2018-03-22T23:25:34.615Z,92.29
2018-03-22T23:28:05.150Z,92.06
2018-03-22T23:30:35.116Z,91.11
2018-03-22T23:33:03.664Z,91.26
2018-03-22T23:35:35.130Z,91.24
2018-03-22T23:38:04.001Z,91.57
2018-03-22T23:40:35.373Z,91.60
2018-03-22T23:43:02.109Z,91.24
2018-03-22T23:45:31.620Z,91.77
2018-03-22T23:48:00.193Z,91.30
2018-03-22T23:50:27.933Z,91.20
2018-03-22T23:52:55.405Z,91.28
2018-03-22T23:55:22.113Z,91.03
2018-03-22T23:57:48.894Z,90.96
